sensor_id;sensor_type;location;lat;lon;timestamp;pressure;altitude;pressure_sealevel;temperature
15360;BMP280;7779;49.596;11.070;2024-03-06T00:02:06;98269.88;;;11.99
15360;BMP280;7779;49.596;11.070;2024-03-06T00:04:31;98256.47;;;11.98
15360;BMP280;7779;49.596;11.070;2024-03-06T00:06:57;98268.94;;;11.97
15360;BMP280;7779;49.596;11.070;2024-03-06T00:09:24;98264.69;;;11.96
15360;BMP280;7779;49.596;11.070;2024-03-06T00:11:53;98270.53;;;11.95
15360;BMP280;7779;49.596;11.070;2024-03-06T00:14:19;98272.16;;;11.94
15360;BMP280;7779;49.596;11.070;2024-03-06T00:16:48;98278.81;;;11.94
15360;BMP280;7779;49.596;11.070;2024-03-06T00:19:18;98278.06;;;11.95
15360;BMP280;7779;49.596;11.070;2024-03-06T00:21:45;98276.31;;;11.94
15360;BMP280;7779;49.596;11.070;2024-03-06T00:24:15;98278.06;;;11.95
15360;BMP280;7779;49.596;11.070;2024-03-06T00:26:42;98283.06;;;11.95
15360;BMP280;7779;49.596;11.070;2024-03-06T00:29:09;98290.59;;;11.95
15360;BMP280;7779;49.596;11.070;2024-03-06T00:31:35;98293.03;;;11.93
15360;BMP280;7779;49.596;11.070;2024-03-06T00:34:01;98296.41;;;11.94
15360;BMP280;7779;49.596;11.070;2024-03-06T00:36:27;98306.44;;;11.94
15360;BMP280;7779;49.596;11.070;2024-03-06T00:38:53;98298.91;;;11.94
15360;BMP280;7779;49.596;11.070;2024-03-06T00:41:18;98303.00;;;11.92
15360;BMP280;7779;49.596;11.070;2024-03-06T00:43:45;98310.63;;;11.93
15360;BMP280;7779;49.596;11.070;2024-03-06T00:46:11;98310.53;;;11.92
15360;BMP280;7779;49.596;11.070;2024-03-06T00:48:37;98318.91;;;11.92
15360;BMP280;7779;49.596;11.070;2024-03-06T00:51:05;98332.31;;;11.93
15360;BMP280;7779;49.596;11.070;2024-03-06T00:53:36;98323.94;;;11.92
15360;BMP280;7779;49.596;11.070;2024-03-06T00:56:03;98329.75;;;11.91
15360;BMP280;7779;49.596;11.070;2024-03-06T00:58:29;98328.09;;;11.92
15360;BMP280;7779;49.596;11.070;2024-03-06T01:00:55;98329.81;;;11.93
15360;BMP280;7779;49.596;11.070;2024-03-06T01:03:20;98329.81;;;11.93
15360;BMP280;7779;49.596;11.070;2024-03-06T01:05:46;98333.22;;;11.93
15360;BMP280;7779;49.596;11.070;2024-03-06T01:08:12;98333.97;;;11.92
15360;BMP280;7779;49.596;11.070;2024-03-06T01:10:38;98339.81;;;11.91
15360;BMP280;7779;49.596;11.070;2024-03-06T01:13:03;98341.44;;;11.91
15360;BMP280;7779;49.596;11.070;2024-03-06T01:15:30;98337.28;;;11.91
15360;BMP280;7779;49.596;11.070;2024-03-06T01:17:56;98329.81;;;11.93
15360;BMP280;7779;49.596;11.070;2024-03-06T01:20:23;98329.81;;;11.93
15360;BMP280;7779;49.596;11.070;2024-03-06T01:22:48;98324.78;;;11.93
15360;BMP280;7779;49.596;11.070;2024-03-06T01:25:14;98324.03;;;11.94
15360;BMP280;7779;49.596;11.070;2024-03-06T01:27:40;98321.50;;;11.94
15360;BMP280;7779;49.596;11.070;2024-03-06T01:30:06;98312.31;;;11.94
15360;BMP280;7779;49.596;11.070;2024-03-06T01:32:32;98313.91;;;11.92
15360;BMP280;7779;49.596;11.070;2024-03-06T01:34:59;98317.22;;;11.91
15360;BMP280;7779;49.596;11.070;2024-03-06T01:37:24;98307.84;;;11.89
15360;BMP280;7779;49.596;11.070;2024-03-06T01:39:50;98310.28;;;11.87
15360;BMP280;7779;49.596;11.070;2024-03-06T01:42:17;98307.72;;;11.86
15360;BMP280;7779;49.596;11.070;2024-03-06T01:44:43;98304.28;;;11.84
15360;BMP280;7779;49.596;11.070;2024-03-06T01:47:09;98315.84;;;11.82
15360;BMP280;7779;49.596;11.070;2024-03-06T01:49:35;98308.13;;;11.77
15360;BMP280;7779;49.596;11.070;2024-03-06T01:52:02;98315.56;;;11.76
15360;BMP280;7779;49.596;11.070;2024-03-06T01:54:29;98315.44;;;11.73
15360;BMP280;7779;49.596;11.070;2024-03-06T01:56:59;98317.78;;;11.70
15360;BMP280;7779;49.596;11.070;2024-03-06T01:59:26;98312.59;;;11.67
15360;BMP280;7779;49.596;11.070;2024-03-06T02:01:55;98317.47;;;11.64
15360;BMP280;7779;49.596;11.070;2024-03-06T02:04:22;98321.50;;;11.62
15360;BMP280;7779;49.596;11.070;2024-03-06T02:06:48;98323.09;;;11.60
15360;BMP280;7779;49.596;11.070;2024-03-06T02:09:14;98320.53;;;11.59
15360;BMP280;7779;49.596;11.070;2024-03-06T02:11:40;98327.06;;;11.57
15360;BMP280;7779;49.596;11.070;2024-03-06T02:14:07;98321.84;;;11.52
15360;BMP280;7779;49.596;11.070;2024-03-06T02:16:36;98313.38;;;11.50
15360;BMP280;7779;49.596;11.070;2024-03-06T02:19:02;98318.31;;;11.49
15360;BMP280;7779;49.596;11.070;2024-03-06T02:21:28;98308.09;;;11.46
15360;BMP280;7779;49.596;11.070;2024-03-06T02:23:54;98303.78;;;11.43
15360;BMP280;7779;49.596;11.070;2024-03-06T02:26:21;98303.59;;;11.40
15360;BMP280;7779;49.596;11.070;2024-03-06T02:28:52;98303.59;;;11.40
15360;BMP280;7779;49.596;11.070;2024-03-06T02:31:20;98307.69;;;11.38
15360;BMP280;7779;49.596;11.070;2024-03-06T02:33:49;98302.56;;;11.37
15360;BMP280;7779;49.596;11.070;2024-03-06T02:36:18;98312.59;;;11.37
15360;BMP280;7779;49.596;11.070;2024-03-06T02:38:45;98303.28;;;11.34
15360;BMP280;7779;49.596;11.070;2024-03-06T02:41:12;98299.75;;;11.31
15360;BMP280;7779;49.596;11.070;2024-03-06T02:43:39;98310.59;;;11.30
15360;BMP280;7779;49.596;11.070;2024-03-06T02:46:05;98310.41;;;11.27
15360;BMP280;7779;49.596;11.070;2024-03-06T02:48:31;98310.25;;;11.24
15360;BMP280;7779;49.596;11.070;2024-03-06T02:50:57;98303.53;;;11.23
15360;BMP280;7779;49.596;11.070;2024-03-06T02:53:23;98307.69;;;11.23
15360;BMP280;7779;49.596;11.070;2024-03-06T02:55:50;98306.81;;;11.22
15360;BMP280;7779;49.596;11.070;2024-03-06T02:58:16;98305.94;;;11.22
15360;BMP280;7779;49.596;11.070;2024-03-06T03:00:43;98304.19;;;11.21
15360;BMP280;7779;49.596;11.070;2024-03-06T03:03:10;98302.59;;;11.21
15360;BMP280;7779;49.596;11.070;2024-03-06T03:05:38;98300.75;;;11.19
15360;BMP280;7779;49.596;11.070;2024-03-06T03:08:04;98303.25;;;11.19
15360;BMP280;7779;49.596;11.070;2024-03-06T03:10:31;98294.88;;;11.18
15360;BMP280;7779;49.596;11.070;2024-03-06T03:12:56;98305.69;;;11.17
15360;BMP280;7779;49.596;11.070;2024-03-06T03:15:22;98298.88;;;11.15
15360;BMP280;7779;49.596;11.070;2024-03-06T03:17:48;98308.13;;;11.16
15360;BMP280;7779;49.596;11.070;2024-03-06T03:20:14;98296.38;;;11.15
15360;BMP280;7779;49.596;11.070;2024-03-06T03:22:42;98300.63;;;11.16
15360;BMP280;7779;49.596;11.070;2024-03-06T03:25:10;98306.47;;;11.16
15360;BMP280;7779;49.596;11.070;2024-03-06T03:27:40;98298.97;;;11.16
15360;BMP280;7779;49.596;11.070;2024-03-06T03:30:11;98303.13;;;11.16
15360;BMP280;7779;49.596;11.070;2024-03-06T03:32:37;98301.47;;;11.16
15360;BMP280;7779;49.596;11.070;2024-03-06T03:35:07;98309.09;;;11.18
15360;BMP280;7779;49.596;11.070;2024-03-06T03:37:33;98307.34;;;11.17
15360;BMP280;7779;49.596;11.070;2024-03-06T03:39:59;98310.66;;;11.16
15360;BMP280;7779;49.596;11.070;2024-03-06T03:42:25;98310.78;;;11.19
15360;BMP280;7779;49.596;11.070;2024-03-06T03:44:51;98309.22;;;11.21
15360;BMP280;7779;49.596;11.070;2024-03-06T03:47:17;98314.41;;;11.24
15360;BMP280;7779;49.596;11.070;2024-03-06T03:49:43;98313.78;;;11.28
15360;BMP280;7779;49.596;11.070;2024-03-06T03:52:09;98314.72;;;11.29
15360;BMP280;7779;49.596;11.070;2024-03-06T03:54:35;98308.13;;;11.31
15360;BMP280;7779;49.596;11.070;2024-03-06T03:57:01;98321.66;;;11.33
15360;BMP280;7779;49.596;11.070;2024-03-06T03:59:27;98316.78;;;11.36
15360;BMP280;7779;49.596;11.070;2024-03-06T04:01:52;98314.34;;;11.38
15360;BMP280;7779;49.596;11.070;2024-03-06T04:04:18;98314.44;;;11.39
15360;BMP280;7779;49.596;11.070;2024-03-06T04:06:44;98317.03;;;11.41
15360;BMP280;7779;49.596;11.070;2024-03-06T04:09:11;98323.16;;;11.46
15360;BMP280;7779;49.596;11.070;2024-03-06T04:11:37;98324.97;;;11.48
15360;BMP280;7779;49.596;11.070;2024-03-06T04:14:07;98316.66;;;11.49
15360;BMP280;7779;49.596;11.070;2024-03-06T04:16:34;98323.41;;;11.50
15360;BMP280;7779;49.596;11.070;2024-03-06T04:19:00;98324.19;;;11.49
15360;BMP280;7779;49.596;11.070;2024-03-06T04:21:26;98324.19;;;11.49
15360;BMP280;7779;49.596;11.070;2024-03-06T04:23:52;98327.56;;;11.50
15360;BMP280;7779;49.596;11.070;2024-03-06T04:26:18;98333.44;;;11.50
15360;BMP280;7779;49.596;11.070;2024-03-06T04:28:44;98331.78;;;11.51
15360;BMP280;7779;49.596;11.070;2024-03-06T04:31:10;98335.16;;;11.51
15360;BMP280;7779;49.596;11.070;2024-03-06T04:33:36;98347.00;;;11.54
15360;BMP280;7779;49.596;11.070;2024-03-06T04:36:03;98344.59;;;11.55
15360;BMP280;7779;49.596;11.070;2024-03-06T04:38:31;98341.28;;;11.56
15360;BMP280;7779;49.596;11.070;2024-03-06T04:40:57;98343.78;;;11.56
15360;BMP280;7779;49.596;11.070;2024-03-06T04:43:23;98344.63;;;11.57
15360;BMP280;7779;49.596;11.070;2024-03-06T04:45:49;98352.25;;;11.58
15360;BMP280;7779;49.596;11.070;2024-03-06T04:48:14;98363.19;;;11.59
15360;BMP280;7779;49.596;11.070;2024-03-06T04:50:40;98364.13;;;11.61
15360;BMP280;7779;49.596;11.070;2024-03-06T04:53:07;98355.78;;;11.62
15360;BMP280;7779;49.596;11.070;2024-03-06T04:55:32;98354.13;;;11.62
15360;BMP280;7779;49.596;11.070;2024-03-06T04:57:58;98363.41;;;11.63
15360;BMP280;7779;49.596;11.070;2024-03-06T05:00:24;98369.28;;;11.64
15360;BMP280;7779;49.596;11.070;2024-03-06T05:02:50;98359.22;;;11.64
15360;BMP280;7779;49.596;11.070;2024-03-06T05:05:15;98359.16;;;11.62
15360;BMP280;7779;49.596;11.070;2024-03-06T05:07:41;98369.19;;;11.62
15360;BMP280;7779;49.596;11.070;2024-03-06T05:10:07;98372.59;;;11.63
15360;BMP280;7779;49.596;11.070;2024-03-06T05:12:34;98382.53;;;11.61
15360;BMP280;7779;49.596;11.070;2024-03-06T05:15:00;98380.03;;;11.61
15360;BMP280;7779;49.596;11.070;2024-03-06T05:17:26;98380.03;;;11.61
15360;BMP280;7779;49.596;11.070;2024-03-06T05:19:51;98380.97;;;11.63
15360;BMP280;7779;49.596;11.070;2024-03-06T05:22:17;98391.00;;;11.63
15360;BMP280;7779;49.596;11.070;2024-03-06T05:24:43;98384.31;;;11.64
15360;BMP280;7779;49.596;11.070;2024-03-06T05:27:10;98386.06;;;11.65
15360;BMP280;7779;49.596;11.070;2024-03-06T05:29:39;98383.56;;;11.65
15360;BMP280;7779;49.596;11.070;2024-03-06T05:32:05;98385.03;;;11.61
15360;BMP280;7779;49.596;11.070;2024-03-06T05:34:33;98385.81;;;11.60
15360;BMP280;7779;49.596;11.070;2024-03-06T05:36:59;98388.31;;;11.60
15360;BMP280;7779;49.596;11.070;2024-03-06T05:39:25;98393.28;;;11.59
15360;BMP280;7779;49.596;11.070;2024-03-06T05:41:51;98391.47;;;11.56
15360;BMP280;7779;49.596;11.070;2024-03-06T05:44:18;98386.31;;;11.53
15360;BMP280;7779;49.596;11.070;2024-03-06T05:46:44;98386.97;;;11.51
15360;BMP280;7779;49.596;11.070;2024-03-06T05:49:10;98386.84;;;11.48
15360;BMP280;7779;49.596;11.070;2024-03-06T05:51:36;98394.28;;;11.46
15360;BMP280;7779;49.596;11.070;2024-03-06T05:54:03;98390.03;;;11.45
15360;BMP280;7779;49.596;11.070;2024-03-06T05:56:29;98394.06;;;11.43
15360;BMP280;7779;49.596;11.070;2024-03-06T05:58:55;98395.63;;;11.41
15360;BMP280;7779;49.596;11.070;2024-03-06T06:01:21;98390.53;;;11.40
15360;BMP280;7779;49.596;11.070;2024-03-06T06:03:48;98396.25;;;11.37
15360;BMP280;7779;49.596;11.070;2024-03-06T06:06:17;98407.91;;;11.37
15360;BMP280;7779;49.596;11.070;2024-03-06T06:08:45;98406.13;;;11.34
15360;BMP280;7779;49.596;11.070;2024-03-06T06:11:11;98411.06;;;11.33
15360;BMP280;7779;49.596;11.070;2024-03-06T06:13:38;98411.13;;;11.34
15360;BMP280;7779;49.596;11.070;2024-03-06T06:16:07;98419.47;;;11.33
15360;BMP280;7779;49.596;11.070;2024-03-06T06:18:33;98427.13;;;11.36
15360;BMP280;7779;49.596;11.070;2024-03-06T06:20:59;98427.97;;;11.37
15360;BMP280;7779;49.596;11.070;2024-03-06T06:23:25;98434.84;;;11.39
15360;BMP280;7779;49.596;11.070;2024-03-06T06:25:51;98439.06;;;11.40
15360;BMP280;7779;49.596;11.070;2024-03-06T06:28:17;98437.47;;;11.42
15360;BMP280;7779;49.596;11.070;2024-03-06T06:30:42;98441.84;;;11.45
15360;BMP280;7779;49.596;11.070;2024-03-06T06:33:08;98442.50;;;11.42
15360;BMP280;7779;49.596;11.070;2024-03-06T06:35:35;98449.16;;;11.42
15360;BMP280;7779;49.596;11.070;2024-03-06T06:38:02;98444.97;;;11.41
15360;BMP280;7779;49.596;11.070;2024-03-06T06:40:27;98447.38;;;11.39
15360;BMP280;7779;49.596;11.070;2024-03-06T06:42:54;98452.41;;;11.39
15360;BMP280;7779;49.596;11.070;2024-03-06T06:45:21;98455.75;;;11.40
15360;BMP280;7779;49.596;11.070;2024-03-06T06:47:48;98456.59;;;11.40
15360;BMP280;7779;49.596;11.070;2024-03-06T06:50:15;98462.50;;;11.41
15360;BMP280;7779;49.596;11.070;2024-03-06T06:52:42;98461.81;;;11.43
15360;BMP280;7779;49.596;11.070;2024-03-06T06:55:07;98461.06;;;11.44
15360;BMP280;7779;49.596;11.070;2024-03-06T06:57:37;98471.44;;;11.50
15360;BMP280;7779;49.596;11.070;2024-03-06T07:00:05;98465.03;;;11.55
15360;BMP280;7779;49.596;11.070;2024-03-06T07:02:40;98472.06;;;11.62
15360;BMP280;7779;49.596;11.070;2024-03-06T07:05:08;98471.63;;;11.69
15360;BMP280;7779;49.596;11.070;2024-03-06T07:07:35;98462.88;;;11.77
15360;BMP280;7779;49.596;11.070;2024-03-06T07:10:02;98468.38;;;11.86
15360;BMP280;7779;49.596;11.070;2024-03-06T07:12:28;98477.34;;;11.97
15360;BMP280;7779;49.596;11.070;2024-03-06T07:14:54;98472.84;;;12.07
15360;BMP280;7779;49.596;11.070;2024-03-06T07:17:20;98476.84;;;12.19
15360;BMP280;7779;49.596;11.070;2024-03-06T07:19:45;98472.38;;;12.30
15360;BMP280;7779;49.596;11.070;2024-03-06T07:22:11;98474.66;;;12.41
15360;BMP280;7779;49.596;11.070;2024-03-06T07:24:37;98478.72;;;12.55
15360;BMP280;7779;49.596;11.070;2024-03-06T07:27:03;98486.91;;;12.67
15360;BMP280;7779;49.596;11.070;2024-03-06T07:29:29;98481.44;;;12.75
15360;BMP280;7779;49.596;11.070;2024-03-06T07:31:55;98485.38;;;12.86
15360;BMP280;7779;49.596;11.070;2024-03-06T07:34:21;98479.88;;;12.93
15360;BMP280;7779;49.596;11.070;2024-03-06T07:36:49;98486.19;;;13.02
15360;BMP280;7779;49.596;11.070;2024-03-06T07:39:15;98493.13;;;13.06
15360;BMP280;7779;49.596;11.070;2024-03-06T07:41:42;98492.56;;;13.12
15360;BMP280;7779;49.596;11.070;2024-03-06T07:44:08;98495.28;;;13.16
15360;BMP280;7779;49.596;11.070;2024-03-06T07:46:35;98490.41;;;13.19
15360;BMP280;7779;49.596;11.070;2024-03-06T07:49:01;98498.09;;;13.22
15360;BMP280;7779;49.596;11.070;2024-03-06T07:51:29;98499.09;;;13.26
15360;BMP280;7779;49.596;11.070;2024-03-06T07:53:58;98504.22;;;13.27
15360;BMP280;7779;49.596;11.070;2024-03-06T07:56:27;98504.22;;;13.27
15360;BMP280;7779;49.596;11.070;2024-03-06T07:58:53;98505.06;;;13.27
15360;BMP280;7779;49.596;11.070;2024-03-06T08:01:20;98509.25;;;13.27
15360;BMP280;7779;49.596;11.070;2024-03-06T08:03:47;98513.50;;;13.28
15360;BMP280;7779;49.596;11.070;2024-03-06T08:06:12;98511.84;;;13.28
15360;BMP280;7779;49.596;11.070;2024-03-06T08:08:42;98512.78;;;13.30
15360;BMP280;7779;49.596;11.070;2024-03-06T08:11:13;98518.72;;;13.32
15360;BMP280;7779;49.596;11.070;2024-03-06T08:13:39;98519.75;;;13.36
15360;BMP280;7779;49.596;11.070;2024-03-06T08:16:06;98519.91;;;13.39
15360;BMP280;7779;49.596;11.070;2024-03-06T08:18:33;98529.25;;;13.41
15360;BMP280;7779;49.596;11.070;2024-03-06T08:21:00;98523.47;;;13.44
15360;BMP280;7779;49.596;11.070;2024-03-06T08:23:26;98526.16;;;13.47
15360;BMP280;7779;49.596;11.070;2024-03-06T08:25:52;98523.78;;;13.50
15360;BMP280;7779;49.596;11.070;2024-03-06T08:28:21;98528.94;;;13.53
15360;BMP280;7779;49.596;11.070;2024-03-06T08:30:46;98523.22;;;13.55
15360;BMP280;7779;49.596;11.070;2024-03-06T08:33:12;98519.97;;;13.58
15360;BMP280;7779;49.596;11.070;2024-03-06T08:35:39;98532.56;;;13.58
15360;BMP280;7779;49.596;11.070;2024-03-06T08:38:05;98529.25;;;13.59
15360;BMP280;7779;49.596;11.070;2024-03-06T08:40:32;98527.78;;;13.64
15360;BMP280;7779;49.596;11.070;2024-03-06T08:42:58;98535.75;;;13.71
15360;BMP280;7779;49.596;11.070;2024-03-06T08:45:24;98535.28;;;13.79
15360;BMP280;7779;49.596;11.070;2024-03-06T08:47:50;98539.97;;;13.89
15360;BMP280;7779;49.596;11.070;2024-03-06T08:50:16;98542.91;;;13.98
15360;BMP280;7779;49.596;11.070;2024-03-06T08:52:42;98537.44;;;14.06
15360;BMP280;7779;49.596;11.070;2024-03-06T08:55:09;98543.78;;;14.16
15360;BMP280;7779;49.596;11.070;2024-03-06T08:57:36;98540.00;;;14.25
15360;BMP280;7779;49.596;11.070;2024-03-06T09:00:04;98547.91;;;14.33
15360;BMP280;7779;49.596;11.070;2024-03-06T09:02:30;98542.13;;;14.35
15360;BMP280;7779;49.596;11.070;2024-03-06T09:04:56;98537.94;;;14.36
15360;BMP280;7779;49.596;11.070;2024-03-06T09:07:22;98539.69;;;14.37
15360;BMP280;7779;49.596;11.070;2024-03-06T09:09:50;98549.03;;;14.39
15360;BMP280;7779;49.596;11.070;2024-03-06T09:12:17;98550.03;;;14.43
15360;BMP280;7779;49.596;11.070;2024-03-06T09:14:43;98550.16;;;14.45
15360;BMP280;7779;49.596;11.070;2024-03-06T09:17:11;98559.50;;;14.48
15360;BMP280;7779;49.596;11.070;2024-03-06T09:19:41;98561.41;;;14.52
15360;BMP280;7779;49.596;11.070;2024-03-06T09:22:07;98559.84;;;14.55
15360;BMP280;7779;49.596;11.070;2024-03-06T09:24:33;98565.84;;;14.57
15360;BMP280;7779;49.596;11.070;2024-03-06T09:27:01;98567.56;;;14.58
15360;BMP280;7779;49.596;11.070;2024-03-06T09:29:27;98564.88;;;14.55
15360;BMP280;7779;49.596;11.070;2024-03-06T09:31:52;98567.41;;;14.55
15360;BMP280;7779;49.596;11.070;2024-03-06T09:34:18;98566.69;;;14.58
15360;BMP280;7779;49.596;11.070;2024-03-06T09:36:49;98561.78;;;14.61
15360;BMP280;7779;49.596;11.070;2024-03-06T09:39:19;98561.84;;;14.62
15360;BMP280;7779;49.596;11.070;2024-03-06T09:41:54;98561.22;;;14.66
15360;BMP280;7779;49.596;11.070;2024-03-06T09:44:21;98572.25;;;14.70
15360;BMP280;7779;49.596;11.070;2024-03-06T09:46:49;98559.13;;;14.77
15360;BMP280;7779;49.596;11.070;2024-03-06T09:49:19;98571.34;;;14.86
15360;BMP280;7779;49.596;11.070;2024-03-06T09:51:47;98564.09;;;14.94
15360;BMP280;7779;49.596;11.070;2024-03-06T09:54:17;98557.59;;;14.99
15360;BMP280;7779;49.596;11.070;2024-03-06T09:56:49;98564.56;;;15.04
15360;BMP280;7779;49.596;11.070;2024-03-06T09:59:15;98571.72;;;15.14
15360;BMP280;7779;49.596;11.070;2024-03-06T10:01:53;98562.16;;;15.26
15360;BMP280;7779;49.596;11.070;2024-03-06T10:04:20;98572.56;;;15.33
15360;BMP280;7779;49.596;11.070;2024-03-06T10:06:47;98559.41;;;15.40
15360;BMP280;7779;49.596;11.070;2024-03-06T10:09:16;98568.28;;;15.51
15360;BMP280;7779;49.596;11.070;2024-03-06T10:11:42;98565.28;;;15.61
15360;BMP280;7779;49.596;11.070;2024-03-06T10:14:08;98564.81;;;15.69
15360;BMP280;7779;49.596;11.070;2024-03-06T10:16:36;98565.25;;;15.80
15360;BMP280;7779;49.596;11.070;2024-03-06T10:19:21;98553.97;;;15.94
15360;BMP280;7779;49.596;11.070;2024-03-06T10:21:49;98561.97;;;16.04
15360;BMP280;7779;49.596;11.070;2024-03-06T10:24:25;98564.84;;;16.13
15360;BMP280;7779;49.596;11.070;2024-03-06T10:26:52;98557.44;;;16.17
15360;BMP280;7779;49.596;11.070;2024-03-06T10:29:21;98561.16;;;16.25
15360;BMP280;7779;49.596;11.070;2024-03-06T10:31:58;98569.09;;;16.34
15360;BMP280;7779;49.596;11.070;2024-03-06T10:34:27;98566.00;;;16.42
15360;BMP280;7779;49.596;11.070;2024-03-06T10:37:02;98562.84;;;16.48
15360;BMP280;7779;49.596;11.070;2024-03-06T10:39:33;98562.06;;;16.49
15360;BMP280;7779;49.596;11.070;2024-03-06T10:42:02;98561.28;;;16.51
15360;BMP280;7779;49.596;11.070;2024-03-06T10:44:28;98565.63;;;16.54
15360;BMP280;7779;49.596;11.070;2024-03-06T10:47:03;98562.97;;;16.51
15360;BMP280;7779;49.596;11.070;2024-03-06T10:49:31;98573.84;;;16.48
15360;BMP280;7779;49.596;11.070;2024-03-06T10:51:59;98577.00;;;16.43
15360;BMP280;7779;49.596;11.070;2024-03-06T10:54:30;98571.72;;;16.37
15360;BMP280;7779;49.596;11.070;2024-03-06T10:56:56;98574.09;;;16.33
15360;BMP280;7779;49.596;11.070;2024-03-06T10:59:26;98578.91;;;16.27
15360;BMP280;7779;49.596;11.070;2024-03-06T11:01:59;98582.88;;;16.20
15360;BMP280;7779;49.596;11.070;2024-03-06T11:04:30;98585.88;;;16.12
15360;BMP280;7779;49.596;11.070;2024-03-06T11:07:03;98588.91;;;16.03
15360;BMP280;7779;49.596;11.070;2024-03-06T11:09:37;98576.84;;;15.97
15360;BMP280;7779;49.596;11.070;2024-03-06T11:12:07;98585.06;;;15.91
15360;BMP280;7779;49.596;11.070;2024-03-06T11:14:36;98594.09;;;15.86
15360;BMP280;7779;49.596;11.070;2024-03-06T11:17:05;98589.56;;;15.78
15360;BMP280;7779;49.596;11.070;2024-03-06T11:28:35;98592.84;;;15.55
15360;BMP280;7779;49.596;11.070;2024-03-06T11:31:10;98591.06;;;15.53
15360;BMP280;7779;49.596;11.070;2024-03-06T11:33:43;98587.59;;;15.51
15360;BMP280;7779;49.596;11.070;2024-03-06T11:36:27;98594.19;;;15.47
15360;BMP280;7779;49.596;11.070;2024-03-06T11:39:02;98590.63;;;15.42
15360;BMP280;7779;49.596;11.070;2024-03-06T11:44:20;98594.38;;;15.31
15360;BMP280;7779;49.596;11.070;2024-03-06T11:47:00;98590.00;;;15.27
15360;BMP280;7779;49.596;11.070;2024-03-06T11:49:28;98591.53;;;15.24
15360;BMP280;7779;49.596;11.070;2024-03-06T11:52:09;98595.59;;;15.21
15360;BMP280;7779;49.596;11.070;2024-03-06T11:54:36;98600.50;;;15.18
15360;BMP280;7779;49.596;11.070;2024-03-06T11:57:05;98598.63;;;15.14
15360;BMP280;7779;49.596;11.070;2024-03-06T11:59:34;98601.00;;;15.11
15360;BMP280;7779;49.596;11.070;2024-03-06T12:02:03;98596.75;;;15.10
15360;BMP280;7779;49.596;11.070;2024-03-06T12:04:34;98598.41;;;15.09
15360;BMP280;7779;49.596;11.070;2024-03-06T12:07:01;98596.75;;;15.10
15360;BMP280;7779;49.596;11.070;2024-03-06T12:09:38;98596.88;;;15.13
15360;BMP280;7779;49.596;11.070;2024-03-06T12:12:06;98597.03;;;15.16
15360;BMP280;7779;49.596;11.070;2024-03-06T12:14:35;98588.69;;;15.17
15360;BMP280;7779;49.596;11.070;2024-03-06T12:17:02;98592.25;;;15.22
15360;BMP280;7779;49.596;11.070;2024-03-06T12:19:37;98594.09;;;15.25
15360;BMP280;7779;49.596;11.070;2024-03-06T12:22:03;98590.91;;;15.29
15360;BMP280;7779;49.596;11.070;2024-03-06T12:24:30;98596.22;;;15.35
15360;BMP280;7779;49.596;11.070;2024-03-06T12:27:04;98597.38;;;15.43
15360;BMP280;7779;49.596;11.070;2024-03-06T12:29:31;98593.44;;;15.50
15360;BMP280;7779;49.596;11.070;2024-03-06T12:31:58;98586.31;;;15.60
15360;BMP280;7779;49.596;11.070;2024-03-06T12:34:25;98594.25;;;15.69
15360;BMP280;7779;49.596;11.070;2024-03-06T12:36:51;98582.66;;;15.74
15360;BMP280;7779;49.596;11.070;2024-03-06T12:39:17;98585.38;;;15.78
15360;BMP280;7779;49.596;11.070;2024-03-06T12:41:47;98589.06;;;15.86
15360;BMP280;7779;49.596;11.070;2024-03-06T12:44:13;98585.91;;;15.92
15360;BMP280;7779;49.596;11.070;2024-03-06T12:46:38;98592.16;;;16.01
15360;BMP280;7779;49.596;11.070;2024-03-06T12:49:04;98584.78;;;16.05
15360;BMP280;7779;49.596;11.070;2024-03-06T12:51:30;98586.63;;;16.09
15360;BMP280;7779;49.596;11.070;2024-03-06T12:53:57;98580.88;;;16.13
15360;BMP280;7779;49.596;11.070;2024-03-06T12:56:22;98571.66;;;16.14
15360;BMP280;7779;49.596;11.070;2024-03-06T12:58:51;98576.81;;;16.17
15360;BMP280;7779;49.596;11.070;2024-03-06T13:01:17;98577.81;;;16.20
15360;BMP280;7779;49.596;11.070;2024-03-06T13:03:43;98575.41;;;16.23
15360;BMP280;7779;49.596;11.070;2024-03-06T13:06:09;98575.56;;;16.28
15360;BMP280;7779;49.596;11.070;2024-03-06T13:08:35;98585.97;;;16.35
15360;BMP280;7779;49.596;11.070;2024-03-06T13:11:01;98578.63;;;16.41
15360;BMP280;7779;49.596;11.070;2024-03-06T13:13:28;98577.09;;;16.46
15360;BMP280;7779;49.596;11.070;2024-03-06T13:15:56;98567.88;;;16.46
15360;BMP280;7779;49.596;11.070;2024-03-06T13:18:21;98577.94;;;16.45
15360;BMP280;7779;49.596;11.070;2024-03-06T13:20:47;98580.47;;;16.45
15360;BMP280;7779;49.596;11.070;2024-03-06T13:23:13;98574.56;;;16.46
15360;BMP280;7779;49.596;11.070;2024-03-06T13:25:39;98580.53;;;16.46
15360;BMP280;7779;49.596;11.070;2024-03-06T13:28:06;98579.63;;;16.46
15360;BMP280;7779;49.596;11.070;2024-03-06T13:30:31;98574.56;;;16.44
15360;BMP280;7779;49.596;11.070;2024-03-06T13:32:58;98568.59;;;16.44
15360;BMP280;7779;49.596;11.070;2024-03-06T13:35:24;98574.56;;;16.46
15360;BMP280;7779;49.596;11.070;2024-03-06T13:37:49;98574.63;;;16.47
15360;BMP280;7779;49.596;11.070;2024-03-06T13:40:15;98572.88;;;16.45
15360;BMP280;7779;49.596;11.070;2024-03-06T13:42:42;98574.47;;;16.43
15360;BMP280;7779;49.596;11.070;2024-03-06T13:45:09;98579.47;;;16.42
15360;BMP280;7779;49.596;11.070;2024-03-06T13:47:44;98577.81;;;16.42
15360;BMP280;7779;49.596;11.070;2024-03-06T13:50:13;98575.28;;;16.42
15360;BMP280;7779;49.596;11.070;2024-03-06T13:52:40;98572.75;;;16.42
15360;BMP280;7779;49.596;11.070;2024-03-06T13:55:07;98568.50;;;16.41
15360;BMP280;7779;49.596;11.070;2024-03-06T13:57:34;98576.09;;;16.41
15360;BMP280;7779;49.596;11.070;2024-03-06T14:00:06;98577.00;;;16.43
15360;BMP280;7779;49.596;11.070;2024-03-06T14:02:39;98581.09;;;16.40
15360;BMP280;7779;49.596;11.070;2024-03-06T14:05:06;98573.38;;;16.37
15360;BMP280;7779;49.596;11.070;2024-03-06T14:07:34;98571.72;;;16.37
15360;BMP280;7779;49.596;11.070;2024-03-06T14:10:00;98576.88;;;16.40
15360;BMP280;7779;49.596;11.070;2024-03-06T14:12:27;98577.00;;;16.43
15360;BMP280;7779;49.596;11.070;2024-03-06T14:14:53;98582.22;;;16.47
15360;BMP280;7779;49.596;11.070;2024-03-06T14:17:18;98582.28;;;16.49
15360;BMP280;7779;49.596;11.070;2024-03-06T14:19:45;98577.22;;;16.49
15360;BMP280;7779;49.596;11.070;2024-03-06T14:22:11;98584.75;;;16.47